Time;durP1;ratioP1;P1;durP2;ratioP2;P2;SDS_P1;SDS_P2;PMS_P1;PMS_P2;Temp;Humidity;BMP_temperature;BMP_pressure;BME280_temperature;BME280_humidity;BME280_pressure;Samples;Min_cycle;Max_cycle;Signal;HPM_P1;HPM_P2
2021/12/03 00:02:04;;;;;;;79.80;37.83;;;;;;;;;;5053411;28;20459;-77
2021/12/03 00:04:29;;;;;;;79.07;36.53;;;;;;;;;;5053822;28;20029;-77
2021/12/03 00:06:55;;;;;;;81.43;37.08;;;;;;;;;;5053708;28;20032;-77
2021/12/03 00:09:21;;;;;;;78.63;35.45;;;;;;;;;;5053722;28;20025;-77
2021/12/03 00:11:46;;;;;;;85.60;37.22;;;;;;;;;;5053939;28;20032;-78
2021/12/03 00:14:12;;;;;;;76.00;35.22;;;;;;;;;;5053672;28;20025;-76
2021/12/03 00:16:37;;;;;;;82.07;37.03;;;;;;;;;;5053337;28;20082;-78
2021/12/03 00:19:03;;;;;;;79.20;37.35;;;;;;;;;;5053524;28;20048;-78
2021/12/03 00:21:28;;;;;;;80.40;37.00;;;;;;;;;;5053570;28;20053;-77
2021/12/03 00:23:54;;;;;;;83.68;36.03;;;;;;;;;;5053456;28;20040;-77
2021/12/03 00:26:19;;;;;;;71.85;35.40;;;;;;;;;;5053487;28;20033;-78
2021/12/03 00:28:45;;;;;;;87.55;36.38;;;;;;;;;;5053487;28;20029;-78
2021/12/03 00:31:11;;;;;;;77.22;35.50;;;;;;;;;;5053155;28;20039;-78
2021/12/03 00:33:36;;;;;;;80.68;37.42;;;;;;;;;;5053950;28;20025;-77
2021/12/03 00:36:06;;;;;;;87.38;39.63;;;;;;;;;;5052309;28;20120;-77
2021/12/03 00:38:39;;;;;;;83.95;39.03;;;;;;;;;;5052424;28;20056;-78
2021/12/03 00:41:06;;;;;;;78.60;37.53;;;;;;;;;;5052257;28;20025;-78
2021/12/03 00:43:31;;;;;;;77.78;38.58;;;;;;;;;;5053702;28;20033;-78
2021/12/03 00:46:04;;;;;;;76.45;37.97;;;;;;;;;;5054813;28;20367;-78
2021/12/03 00:48:30;;;;;;;85.00;39.22;;;;;;;;;;5055861;28;20020;-78
2021/12/03 00:50:55;;;;;;;84.13;38.83;;;;;;;;;;5056930;28;20362;-78
2021/12/03 00:53:21;;;;;;;83.00;39.15;;;;;;;;;;5056860;28;20025;-77
2021/12/03 00:55:46;;;;;;;88.82;41.70;;;;;;;;;;5056798;28;20064;-78
2021/12/03 00:58:11;;;;;;;80.13;39.75;;;;;;;;;;5056550;28;20074;-78
2021/12/03 01:00:37;;;;;;;80.18;39.38;;;;;;;;;;5056704;28;20406;-78
2021/12/03 01:03:02;;;;;;;80.97;38.35;;;;;;;;;;5056586;28;20029;-78
2021/12/03 01:05:28;;;;;;;106.47;46.42;;;;;;;;;;5056763;28;20028;-78
2021/12/03 01:07:54;;;;;;;83.68;40.97;;;;;;;;;;5056557;28;20017;-78
2021/12/03 01:10:19;;;;;;;82.63;39.63;;;;;;;;;;5056629;28;20074;-78
2021/12/03 01:12:45;;;;;;;82.38;37.55;;;;;;;;;;5055018;28;20091;-77
2021/12/03 01:15:13;;;;;;;83.20;37.70;;;;;;;;;;5055279;28;20111;-78
2021/12/03 01:17:39;;;;;;;87.43;39.75;;;;;;;;;;5055283;28;20021;-78
2021/12/03 01:20:06;;;;;;;90.75;40.55;;;;;;;;;;5055175;28;20420;-78
2021/12/03 01:22:32;;;;;;;80.38;37.38;;;;;;;;;;5056357;28;20095;-78
2021/12/03 01:24:57;;;;;;;95.18;40.95;;;;;;;;;;5056220;28;20037;-78
2021/12/03 01:27:23;;;;;;;86.38;39.47;;;;;;;;;;5054848;28;20052;-77
2021/12/03 01:29:48;;;;;;;91.65;40.38;;;;;;;;;;5055030;28;20468;-78
2021/12/03 01:32:14;;;;;;;87.82;39.63;;;;;;;;;;5056093;28;20115;-78
2021/12/03 01:34:39;;;;;;;85.70;40.65;;;;;;;;;;5056066;28;20025;-78
2021/12/03 01:37:05;;;;;;;81.35;37.80;;;;;;;;;;5055854;28;20035;-78
2021/12/03 01:39:30;;;;;;;81.70;37.58;;;;;;;;;;5055968;28;20032;-78
2021/12/03 01:41:56;;;;;;;97.30;43.33;;;;;;;;;;5055576;28;20029;-78
2021/12/03 01:44:21;;;;;;;86.97;41.42;;;;;;;;;;5056567;28;20027;-78
2021/12/03 01:46:47;;;;;;;85.72;40.05;;;;;;;;;;5056089;28;20435;-78
2021/12/03 01:49:14;;;;;;;79.75;39.13;;;;;;;;;;5056046;28;20052;-78
2021/12/03 01:51:39;;;;;;;86.43;39.10;;;;;;;;;;5055787;28;20025;-78
2021/12/03 01:54:05;;;;;;;77.75;37.63;;;;;;;;;;5055621;28;20119;-77
2021/12/03 01:56:30;;;;;;;84.55;38.83;;;;;;;;;;5054609;28;20108;-78
2021/12/03 01:58:56;;;;;;;86.07;39.53;;;;;;;;;;5055223;28;20025;-78
2021/12/03 02:01:24;;;;;;;85.95;38.95;;;;;;;;;;5055640;28;20075;-78
2021/12/03 02:03:52;;;;;;;81.13;38.42;;;;;;;;;;5055465;28;20037;-78
2021/12/03 02:06:18;;;;;;;80.53;37.05;;;;;;;;;;5055526;28;20026;-78
2021/12/03 02:08:43;;;;;;;83.80;38.85;;;;;;;;;;5055509;28;20361;-78
2021/12/03 02:11:09;;;;;;;83.40;39.15;;;;;;;;;;5055159;28;20039;-78
2021/12/03 02:13:35;;;;;;;84.55;39.17;;;;;;;;;;5055246;28;20052;-78
2021/12/03 02:16:00;;;;;;;85.90;38.95;;;;;;;;;;5055277;28;20025;-78
2021/12/03 02:18:26;;;;;;;83.28;37.72;;;;;;;;;;5055192;28;20028;-78
2021/12/03 02:20:56;;;;;;;85.35;39.78;;;;;;;;;;5055162;28;20028;-78
2021/12/03 02:26:06;;;;;;;85.22;37.72;;;;;;;;;;5054777;28;19920;-78
2021/12/03 02:28:33;;;;;;;86.30;38.55;;;;;;;;;;5055031;28;20021;-78
2021/12/03 02:30:59;;;;;;;81.53;39.47;;;;;;;;;;5054999;28;20029;-78
2021/12/03 02:33:24;;;;;;;86.00;39.25;;;;;;;;;;5054901;28;20363;-78
2021/12/03 02:35:50;;;;;;;81.60;38.40;;;;;;;;;;5053661;28;20029;-78
2021/12/03 02:38:17;;;;;;;85.18;38.80;;;;;;;;;;5054912;28;20052;-78
2021/12/03 02:40:43;;;;;;;80.70;38.75;;;;;;;;;;5054531;28;20339;-78
2021/12/03 02:43:08;;;;;;;77.28;37.20;;;;;;;;;;5055014;28;20036;-78
2021/12/03 02:45:34;;;;;;;74.32;36.53;;;;;;;;;;5058716;28;20025;-77
2021/12/03 02:47:59;;;;;;;79.60;37.75;;;;;;;;;;5055050;28;20040;-78
2021/12/03 02:50:25;;;;;;;77.43;37.70;;;;;;;;;;5053573;28;20028;-77
2021/12/03 02:52:50;;;;;;;83.07;39.10;;;;;;;;;;5037092;28;20135;-77
2021/12/03 02:55:16;;;;;;;81.30;37.53;;;;;;;;;;5053284;28;20029;-77
2021/12/03 02:57:42;;;;;;;76.65;37.75;;;;;;;;;;5054864;28;20021;-78
2021/12/03 03:00:10;;;;;;;96.40;43.22;;;;;;;;;;5053279;28;20078;-77
2021/12/03 03:02:36;;;;;;;92.22;40.88;;;;;;;;;;5054403;28;20515;-77
2021/12/03 03:05:01;;;;;;;77.50;37.60;;;;;;;;;;5054759;28;20025;-77
2021/12/03 03:07:29;;;;;;;93.13;41.45;;;;;;;;;;5054432;28;20362;-77
2021/12/03 03:09:54;;;;;;;73.43;34.70;;;;;;;;;;5053972;28;20032;-77
2021/12/03 03:12:20;;;;;;;78.15;37.30;;;;;;;;;;5054338;28;20021;-78
2021/12/03 03:14:47;;;;;;;73.70;36.22;;;;;;;;;;5054392;28;20029;-78
2021/12/03 03:17:13;;;;;;;88.18;38.38;;;;;;;;;;5054292;28;20029;-77
2021/12/03 03:19:38;;;;;;;83.53;36.83;;;;;;;;;;5054198;28;20025;-77
2021/12/03 03:22:04;;;;;;;93.88;36.85;;;;;;;;;;5054033;28;20025;-78
2021/12/03 03:24:29;;;;;;;80.93;37.42;;;;;;;;;;5053864;28;20115;-78
2021/12/03 03:26:55;;;;;;;85.72;38.42;;;;;;;;;;5036297;28;20029;-77
2021/12/03 03:29:21;;;;;;;84.07;37.90;;;;;;;;;;5036314;28;20389;-78
2021/12/03 03:31:47;;;;;;;84.75;37.30;;;;;;;;;;5054479;28;20394;-78
2021/12/03 03:34:12;;;;;;;74.75;36.05;;;;;;;;;;5053981;28;20064;-78
2021/12/03 03:36:39;;;;;;;76.43;35.63;;;;;;;;;;5054033;28;20124;-78
2021/12/03 03:39:06;;;;;;;77.03;36.20;;;;;;;;;;5052750;28;20352;-78
2021/12/03 03:41:31;;;;;;;74.88;34.08;;;;;;;;;;5053972;28;20051;-78
2021/12/03 03:43:57;;;;;;;76.68;33.38;;;;;;;;;;5020113;28;20446;-77
2021/12/03 03:46:22;;;;;;;74.15;33.80;;;;;;;;;;5052659;28;20428;-77
2021/12/03 03:48:48;;;;;;;75.05;32.67;;;;;;;;;;5054141;28;20041;-78
2021/12/03 03:51:13;;;;;;;72.85;32.63;;;;;;;;;;5053857;28;20040;-78
2021/12/03 03:53:40;;;;;;;74.35;34.03;;;;;;;;;;5053594;28;20037;-78
2021/12/03 03:56:06;;;;;;;75.80;33.38;;;;;;;;;;5036891;28;20078;-77
2021/12/03 03:58:32;;;;;;;77.13;34.35;;;;;;;;;;5054374;28;20430;-78
2021/12/03 04:00:57;;;;;;;68.88;33.17;;;;;;;;;;5053743;28;20090;-79
2021/12/03 04:03:23;;;;;;;68.50;33.33;;;;;;;;;;5052372;28;20450;-78
2021/12/03 04:05:48;;;;;;;66.20;31.63;;;;;;;;;;5053741;28;20061;-78
2021/12/03 04:08:14;;;;;;;60.05;30.88;;;;;;;;;;5053377;28;20370;-78
2021/12/03 04:10:39;;;;;;;64.55;29.85;;;;;;;;;;5053679;28;20040;-78
2021/12/03 04:13:05;;;;;;;70.35;32.92;;;;;;;;;;5053556;28;20033;-78
2021/12/03 04:15:30;;;;;;;71.63;32.08;;;;;;;;;;5053683;28;20027;-78
2021/12/03 04:17:56;;;;;;;72.05;33.25;;;;;;;;;;5053521;28;20036;-78
2021/12/03 04:20:21;;;;;;;83.30;37.65;;;;;;;;;;5054412;28;20028;-78
2021/12/03 04:22:47;;;;;;;101.72;42.28;;;;;;;;;;5055845;28;20021;-78
2021/12/03 04:25:16;;;;;;;140.02;50.13;;;;;;;;;;5057346;28;20029;-78
2021/12/03 04:27:41;;;;;;;133.90;51.13;;;;;;;;;;5057383;28;20047;-78
2021/12/03 04:30:09;;;;;;;129.02;50.50;;;;;;;;;;5057243;28;20498;-78
2021/12/03 04:32:35;;;;;;;151.68;56.40;;;;;;;;;;5039601;28;20450;-79
2021/12/03 04:35:00;;;;;;;161.23;61.28;;;;;;;;;;5057147;28;20025;-78
2021/12/03 04:37:25;;;;;;;117.78;45.13;;;;;;;;;;5056691;28;20485;-78
2021/12/03 04:39:51;;;;;;;144.20;53.53;;;;;;;;;;5057284;28;20028;-79
2021/12/03 04:42:17;;;;;;;116.10;46.75;;;;;;;;;;5056865;28;20037;-79
2021/12/03 04:44:42;;;;;;;129.63;51.53;;;;;;;;;;5056986;28;20033;-78
2021/12/03 04:47:08;;;;;;;123.18;48.83;;;;;;;;;;5056949;28;20033;-78
2021/12/03 04:49:34;;;;;;;96.72;41.67;;;;;;;;;;5039194;28;20494;-77
2021/12/03 04:51:59;;;;;;;114.00;47.10;;;;;;;;;;5056584;28;20416;-78
2021/12/03 04:54:26;;;;;;;108.38;47.25;;;;;;;;;;5056788;28;20043;-78
2021/12/03 04:56:52;;;;;;;105.15;46.20;;;;;;;;;;5056787;28;20029;-78
2021/12/03 04:59:17;;;;;;;115.72;47.28;;;;;;;;;;5056692;28;20021;-78
2021/12/03 05:01:43;;;;;;;121.00;51.15;;;;;;;;;;5056652;28;20032;-77
2021/12/03 05:04:09;;;;;;;111.22;45.17;;;;;;;;;;5056548;28;20458;-78
2021/12/03 05:09:21;;;;;;;118.00;47.63;;;;;;;;;;5055448;28;20044;-78
2021/12/03 05:11:46;;;;;;;104.75;44.97;;;;;;;;;;5038964;28;20029;-78
2021/12/03 05:14:12;;;;;;;111.35;45.17;;;;;;;;;;5055305;28;20485;-77
2021/12/03 05:16:38;;;;;;;95.82;43.05;;;;;;;;;;5056378;28;20021;-79
2021/12/03 05:19:03;;;;;;;104.70;43.35;;;;;;;;;;5054944;28;20032;-77
2021/12/03 05:21:29;;;;;;;93.70;42.33;;;;;;;;;;5056352;28;20028;-77
2021/12/03 05:23:54;;;;;;;103.13;44.83;;;;;;;;;;5056224;28;20088;-78
2021/12/03 05:26:20;;;;;;;106.25;46.83;;;;;;;;;;5056201;28;20086;-78
2021/12/03 05:28:45;;;;;;;105.80;46.75;;;;;;;;;;5056090;28;20438;-78
2021/12/03 05:31:11;;;;;;;96.00;44.63;;;;;;;;;;5055793;28;20028;-78
2021/12/03 05:33:36;;;;;;;100.55;46.33;;;;;;;;;;5055840;28;20082;-77
2021/12/03 05:36:02;;;;;;;106.40;46.70;;;;;;;;;;5055393;28;20028;-78
2021/12/03 05:38:27;;;;;;;100.32;45.95;;;;;;;;;;5055802;28;20128;-78
2021/12/03 05:40:53;;;;;;;106.50;48.60;;;;;;;;;;5055946;28;20090;-78
2021/12/03 05:43:18;;;;;;;142.45;65.03;;;;;;;;;;5056018;28;20036;-78
2021/12/03 05:45:44;;;;;;;131.95;60.00;;;;;;;;;;5055733;28;20131;-79
2021/12/03 05:48:09;;;;;;;118.72;55.22;;;;;;;;;;5054369;28;20032;-78
2021/12/03 05:50:35;;;;;;;103.85;48.25;;;;;;;;;;5055811;28;20021;-77
2021/12/03 05:53:01;;;;;;;107.57;47.53;;;;;;;;;;5055713;28;20462;-78
2021/12/03 05:55:26;;;;;;;113.85;49.85;;;;;;;;;;5055687;28;20017;-78
2021/12/03 05:57:52;;;;;;;108.25;50.05;;;;;;;;;;5054901;28;20353;-78
2021/12/03 06:00:25;;;;;;;116.43;51.42;;;;;;;;;;5055599;28;20492;-78
2021/12/03 06:02:52;;;;;;;111.28;51.88;;;;;;;;;;5055221;28;20119;-78
2021/12/03 06:05:18;;;;;;;119.40;54.38;;;;;;;;;;5055602;28;20112;-78
2021/12/03 06:07:43;;;;;;;117.53;53.92;;;;;;;;;;5055377;28;20119;-78
2021/12/03 06:10:09;;;;;;;137.05;62.20;;;;;;;;;;5055409;28;20068;-79
2021/12/03 06:12:35;;;;;;;148.25;69.90;;;;;;;;;;5056213;28;20033;-78
2021/12/03 06:15:00;;;;;;;153.98;74.28;;;;;;;;;;5055837;28;20027;-78
2021/12/03 06:17:25;;;;;;;174.32;88.47;;;;;;;;;;5056005;28;20443;-78
2021/12/03 06:19:51;;;;;;;157.43;71.22;;;;;;;;;;5066723;28;20047;-79
2021/12/03 06:22:16;;;;;;;149.90;67.88;;;;;;;;;;5064431;28;20428;-78
2021/12/03 06:24:42;;;;;;;170.40;76.53;;;;;;;;;;5066492;28;20021;-77
2021/12/03 06:27:07;;;;;;;164.75;77.53;;;;;;;;;;5063103;28;20025;-78
2021/12/03 06:29:33;;;;;;;222.40;100.47;;;;;;;;;;5063012;28;20447;-77
2021/12/03 06:31:59;;;;;;;224.75;103.45;;;;;;;;;;5053399;28;20048;-77
2021/12/03 06:34:24;;;;;;;180.85;83.63;;;;;;;;;;5053658;28;20033;-77
2021/12/03 06:36:50;;;;;;;194.63;77.95;;;;;;;;;;5054838;28;20031;-77
2021/12/03 06:39:15;;;;;;;176.10;73.63;;;;;;;;;;5053574;28;20383;-78
2021/12/03 06:41:41;;;;;;;158.07;71.72;;;;;;;;;;5055561;28;20036;-78
2021/12/03 06:44:08;;;;;;;159.98;72.72;;;;;;;;;;5054018;28;20029;-77
2021/12/03 06:46:34;;;;;;;179.05;75.63;;;;;;;;;;5054375;28;20017;-78
2021/12/03 06:49:00;;;;;;;170.80;72.00;;;;;;;;;;5054714;28;20024;-77
2021/12/03 06:51:25;;;;;;;166.32;72.80;;;;;;;;;;5054579;28;20021;-77
2021/12/03 06:53:58;;;;;;;157.65;66.25;;;;;;;;;;5054525;28;20421;-77
2021/12/03 06:56:31;;;;;;;153.88;65.10;;;;;;;;;;5054444;28;20028;-77
2021/12/03 06:58:57;;;;;;;153.50;63.13;;;;;;;;;;5053339;28;20036;-77
2021/12/03 07:01:22;;;;;;;242.32;114.53;;;;;;;;;;5054197;28;20029;-77
2021/12/03 07:03:48;;;;;;;154.25;64.93;;;;;;;;;;5053084;28;20037;-77
2021/12/03 07:06:13;;;;;;;152.30;65.90;;;;;;;;;;5060899;28;20025;-77
2021/12/03 07:08:39;;;;;;;162.30;64.30;;;;;;;;;;5073034;28;20111;-76
2021/12/03 07:11:04;;;;;;;157.25;69.13;;;;;;;;;;5074379;28;20028;-76
2021/12/03 07:13:31;;;;;;;155.88;71.25;;;;;;;;;;5074829;28;20434;-76
2021/12/03 07:15:59;;;;;;;161.65;74.80;;;;;;;;;;5073938;28;20024;-77
2021/12/03 07:18:25;;;;;;;151.00;71.97;;;;;;;;;;5073090;28;20025;-76
2021/12/03 07:20:51;;;;;;;155.50;73.50;;;;;;;;;;5073150;28;20031;-76
2021/12/03 07:23:16;;;;;;;182.05;77.78;;;;;;;;;;5072648;28;20086;-76
2021/12/03 07:25:42;;;;;;;175.07;75.78;;;;;;;;;;5073965;28;20116;-76
2021/12/03 07:28:07;;;;;;;189.32;83.75;;;;;;;;;;5073994;28;20108;-77
2021/12/03 07:30:33;;;;;;;162.85;71.38;;;;;;;;;;5072865;28;20052;-77
2021/12/03 07:32:58;;;;;;;176.02;76.63;;;;;;;;;;5073981;28;20024;-76
2021/12/03 07:35:24;;;;;;;143.32;59.95;;;;;;;;;;5073972;28;20028;-76
2021/12/03 07:37:49;;;;;;;128.77;53.70;;;;;;;;;;5073706;28;20052;-75
2021/12/03 07:40:15;;;;;;;129.48;54.97;;;;;;;;;;5073944;28;20036;-76
2021/12/03 07:42:40;;;;;;;96.95;42.65;;;;;;;;;;5073665;28;20035;-75
2021/12/03 07:45:08;;;;;;;165.20;82.78;;;;;;;;;;5051960;28;20029;-75
2021/12/03 07:47:33;;;;;;;236.85;124.88;;;;;;;;;;5052636;28;20082;-77
2021/12/03 07:49:59;;;;;;;150.13;68.45;;;;;;;;;;5053764;28;20060;-76
2021/12/03 07:52:25;;;;;;;82.18;38.08;;;;;;;;;;5053767;28;20033;-77
2021/12/03 07:54:51;;;;;;;72.95;33.08;;;;;;;;;;5055505;28;20102;-76
2021/12/03 07:57:16;;;;;;;79.50;40.10;;;;;;;;;;5057819;28;20061;-77
2021/12/03 07:59:42;;;;;;;84.28;41.42;;;;;;;;;;5057491;28;20035;-77
2021/12/03 08:02:07;;;;;;;93.85;46.42;;;;;;;;;;5057498;28;20103;-78
2021/12/03 08:04:33;;;;;;;83.40;40.28;;;;;;;;;;5040257;28;20040;-78
2021/12/03 08:07:00;;;;;;;79.45;41.67;;;;;;;;;;5057563;28;20024;-77
2021/12/03 08:09:26;;;;;;;76.00;33.60;;;;;;;;;;5057599;28;20454;-78
2021/12/03 08:11:51;;;;;;;66.70;30.05;;;;;;;;;;5057564;28;20032;-77
2021/12/03 08:14:16;;;;;;;70.03;32.72;;;;;;;;;;5057111;28;20377;-77
2021/12/03 08:16:43;;;;;;;98.53;47.55;;;;;;;;;;5057711;28;20036;-78
2021/12/03 08:19:08;;;;;;;92.88;49.63;;;;;;;;;;5057410;28;20049;-76
2021/12/03 08:21:34;;;;;;;98.85;50.70;;;;;;;;;;5057425;28;20064;-76
2021/12/03 08:24:00;;;;;;;80.72;40.05;;;;;;;;;;5057258;28;20037;-76
2021/12/03 08:26:29;;;;;;;99.40;52.72;;;;;;;;;;5056021;28;20060;-75
2021/12/03 08:28:54;;;;;;;94.13;46.72;;;;;;;;;;5057214;28;20127;-77
2021/12/03 08:31:20;;;;;;;86.85;43.88;;;;;;;;;;5057130;28;20112;-77
2021/12/03 08:33:46;;;;;;;106.35;50.28;;;;;;;;;;5057100;28;20029;-77
2021/12/03 08:36:12;;;;;;;144.10;65.40;;;;;;;;;;5057124;28;20032;-77
2021/12/03 08:38:37;;;;;;;80.50;39.92;;;;;;;;;;5057108;28;20048;-78
2021/12/03 08:41:03;;;;;;;77.20;38.35;;;;;;;;;;5055863;28;20028;-77
2021/12/03 08:43:28;;;;;;;78.22;37.83;;;;;;;;;;5056604;28;20040;-77
2021/12/03 08:45:55;;;;;;;73.30;34.05;;;;;;;;;;5056928;28;20354;-76
2021/12/03 08:48:22;;;;;;;73.05;36.30;;;;;;;;;;5057070;28;20362;-77
2021/12/03 08:50:52;;;;;;;74.18;31.70;;;;;;;;;;5055929;28;20031;-78
2021/12/03 08:54:48;;;;;;;65.72;31.98;;;;;;;;;;5056672;28;20025;-77
2021/12/03 08:56:06;;;;;;;101.43;48.83;;;;;;;;;;5056638;28;20029;-76
2021/12/03 08:58:31;;;;;;;70.95;34.97;;;;;;;;;;5056333;28;20363;-77
2021/12/03 09:00:57;;;;;;;76.13;37.58;;;;;;;;;;5055298;28;20029;-77
2021/12/03 09:03:23;;;;;;;68.22;34.42;;;;;;;;;;5056359;28;20030;-77
2021/12/03 09:05:48;;;;;;;65.22;34.40;;;;;;;;;;5055872;28;20082;-78
2021/12/03 09:08:14;;;;;;;74.55;37.45;;;;;;;;;;5055844;28;20036;-79
2021/12/03 09:10:40;;;;;;;60.83;30.83;;;;;;;;;;5071583;28;20102;-78
2021/12/03 09:13:06;;;;;;;59.47;28.90;;;;;;;;;;5073119;28;20031;-77
2021/12/03 09:15:46;;;;;;;59.42;27.90;;;;;;;;;;5074549;28;20389;-78
2021/12/03 09:21:00;;;;;;;54.03;28.08;;;;;;;;;;5075143;28;20032;-77
2021/12/03 09:23:52;;;;;;;69.13;33.60;;;;;;;;;;5074374;28;20355;-76
2021/12/03 09:26:18;;;;;;;71.95;32.65;;;;;;;;;;5074585;28;20024;-77
2021/12/03 09:28:49;;;;;;;84.13;35.40;;;;;;;;;;5074864;28;20412;-76
2021/12/03 09:31:16;;;;;;;71.35;31.55;;;;;;;;;;5076060;28;20389;-77
2021/12/03 09:33:45;;;;;;;62.78;31.35;;;;;;;;;;5076004;28;20450;-78
2021/12/03 09:36:11;;;;;;;76.10;36.92;;;;;;;;;;5074676;28;20098;-76
2021/12/03 09:38:36;;;;;;;73.85;35.80;;;;;;;;;;5075828;28;20045;-79
2021/12/03 09:41:08;;;;;;;77.97;42.10;;;;;;;;;;5074615;28;20067;-79
2021/12/03 09:43:39;;;;;;;72.53;37.70;;;;;;;;;;5075715;28;20032;-76
2021/12/03 09:46:15;;;;;;;91.40;48.95;;;;;;;;;;5074629;28;20107;-78
2021/12/03 09:51:26;;;;;;;82.13;39.85;;;;;;;;;;5076276;28;20095;-77
2021/12/03 09:56:36;;;;;;;66.13;34.05;;;;;;;;;;5075326;28;20116;-78
2021/12/03 10:02:12;;;;;;;47.03;22.17;;;;;;;;;;5074444;28;20016;-78
2021/12/03 10:12:40;;;;;;;36.08;14.68;;;;;;;;;;5075321;28;20044;-76
2021/12/03 10:15:10;;;;;;;28.77;14.02;;;;;;;;;;5075137;28;20028;-79
2021/12/03 10:20:23;;;;;;;49.97;22.25;;;;;;;;;;5073750;28;20094;-76
2021/12/03 10:40:41;;;;;;;18.85;8.25;;;;;;;;;;5105598;27;1390366;-75
2021/12/03 10:43:38;;;;;;;17.98;8.82;;;;;;;;;;5113920;28;20035;-79
2021/12/03 10:48:45;;;;;;;15.70;6.35;;;;;;;;;;5132276;28;20026;-80
2021/12/03 10:51:21;;;;;;;14.45;6.80;;;;;;;;;;5132254;28;20364;-78
2021/12/03 10:53:57;;;;;;;12.93;5.63;;;;;;;;;;5131932;28;20024;-77
2021/12/03 10:56:41;;;;;;;21.80;9.13;;;;;;;;;;5132362;28;20059;-78
2021/12/03 11:02:23;;;;;;;14.95;6.95;;;;;;;;;;5132030;28;20110;-78
2021/12/03 11:13:47;;;;;;;10.27;5.40;;;;;;;;;;5131847;28;20049;-77
2021/12/03 11:16:26;;;;;;;12.95;5.72;;;;;;;;;;5130897;28;20047;-78
2021/12/03 11:55:12;;;;;;;13.07;5.80;;;;;;;;;;5100474;28;20126;-79
2021/12/03 12:05:58;;;;;;;8.32;4.15;;;;;;;;;;5098919;28;20045;-80
2021/12/03 13:43:49;;;;;;;29.75;12.88;;;;;;;;;;5094719;28;20131;-77
2021/12/03 14:06:35;;;;;;;18.15;6.35;;;;;;;;;;5063827;28;20031;-77
2021/12/03 14:44:51;;;;;;;26.52;9.95;;;;;;;;;;5094082;28;20016;-78
2021/12/03 14:55:32;;;;;;;26.45;10.80;;;;;;;;;;5077608;28;20027;-77
2021/12/03 14:58:02;;;;;;;19.17;8.45;;;;;;;;;;5075734;28;20094;-79
2021/12/03 15:00:54;;;;;;;22.45;9.38;;;;;;;;;;5093748;28;20039;-79
2021/12/03 15:32:38;;;;;;;9.05;4.78;;;;;;;;;;5067911;28;20059;-79
2021/12/03 15:35:17;;;;;;;10.65;4.82;;;;;;;;;;5097459;28;20085;-78
2021/12/03 16:04:23;;;;;;;12.75;5.97;;;;;;;;;;5012065;28;20106;-78
2021/12/03 16:10:14;;;;;;;16.23;7.35;;;;;;;;;;5095740;28;20441;-78
2021/12/03 16:52:03;;;;;;;35.97;12.85;;;;;;;;;;5098430;28;20034;-77
2021/12/03 16:55:03;;;;;;;22.40;8.73;;;;;;;;;;5098778;28;20031;-78
2021/12/03 16:57:24;;;;;;;31.02;12.55;;;;;;;;;;5080270;28;20382;-77
2021/12/03 16:59:52;;;;;;;33.40;13.02;;;;;;;;;;5099473;28;20061;-77
2021/12/03 17:02:28;;;;;;;64.65;21.30;;;;;;;;;;5097637;28;20490;-77
2021/12/03 17:48:22;;;;;;;27.80;11.98;;;;;;;;;;5094544;28;20024;-78
2021/12/03 17:56:19;;;;;;;21.88;9.23;;;;;;;;;;5094761;28;20346;-78
2021/12/03 17:58:48;;;;;;;20.73;9.50;;;;;;;;;;5094594;28;20477;-78
2021/12/03 18:52:15;;;;;;;22.73;11.23;;;;;;;;;;5093790;28;20020;-79
2021/12/03 18:57:13;;;;;;;27.98;12.77;;;;;;;;;;5094098;28;20077;-78
2021/12/03 18:59:50;;;;;;;30.48;12.68;;;;;;;;;;5093976;28;20039;-78
2021/12/03 19:02:16;;;;;;;19.73;10.25;;;;;;;;;;5081848;28;20052;-78
2021/12/03 19:04:52;;;;;;;26.45;11.38;;;;;;;;;;5080073;28;20499;-78
2021/12/03 19:07:24;;;;;;;24.73;11.73;;;;;;;;;;5097732;28;20039;-78
2021/12/03 19:09:52;;;;;;;26.33;12.10;;;;;;;;;;5098212;28;20032;-78
2021/12/03 19:12:26;;;;;;;22.75;11.27;;;;;;;;;;5064058;28;20032;-78
2021/12/03 19:15:00;;;;;;;28.77;12.65;;;;;;;;;;5081264;28;20122;-78
2021/12/03 19:17:25;;;;;;;20.80;8.95;;;;;;;;;;5097747;28;20028;-78
2021/12/03 19:19:56;;;;;;;18.27;9.13;;;;;;;;;;5097719;28;20032;-79
2021/12/03 19:22:22;;;;;;;20.50;10.15;;;;;;;;;;5080331;28;20081;-79
2021/12/03 19:24:49;;;;;;;17.55;8.70;;;;;;;;;;5097582;28;20081;-76
2021/12/03 19:27:14;;;;;;;29.10;10.93;;;;;;;;;;5097646;28;20035;-79
2021/12/03 19:29:42;;;;;;;19.08;9.05;;;;;;;;;;5097492;28;20370;-78
2021/12/03 19:32:08;;;;;;;23.05;10.63;;;;;;;;;;5097614;28;20030;-79
2021/12/03 19:34:33;;;;;;;16.75;7.95;;;;;;;;;;5079447;28;20127;-78
2021/12/03 19:36:59;;;;;;;16.65;7.95;;;;;;;;;;5079437;28;20031;-77
2021/12/03 19:39:25;;;;;;;31.42;13.18;;;;;;;;;;5097331;28;20446;-78
2021/12/03 19:42:09;;;;;;;19.58;8.70;;;;;;;;;;5079161;28;20032;-78
2021/12/03 19:44:42;;;;;;;17.27;7.18;;;;;;;;;;5097368;28;20024;-77
2021/12/03 19:47:09;;;;;;;38.72;13.57;;;;;;;;;;5097198;28;20350;-78
2021/12/03 19:49:51;;;;;;;17.50;7.65;;;;;;;;;;5096918;28;20028;-78
2021/12/03 19:52:30;;;;;;;17.45;7.97;;;;;;;;;;5097146;28;20031;-77
2021/12/03 19:54:55;;;;;;;17.65;8.85;;;;;;;;;;5081060;28;20372;-78
2021/12/03 19:57:24;;;;;;;12.27;6.15;;;;;;;;;;5097064;28;20031;-77
2021/12/03 19:59:50;;;;;;;13.68;6.05;;;;;;;;;;5096929;28;20020;-78
2021/12/03 20:02:16;;;;;;;19.20;7.30;;;;;;;;;;5097080;28;20031;-77
2021/12/03 20:04:42;;;;;;;18.50;7.72;;;;;;;;;;5096767;28;20024;-78
2021/12/03 20:07:07;;;;;;;21.25;9.20;;;;;;;;;;5096904;28;20028;-77
2021/12/03 20:09:58;;;;;;;23.27;10.15;;;;;;;;;;5096934;28;20024;-77
2021/12/03 20:12:24;;;;;;;19.90;8.57;;;;;;;;;;5078138;28;20047;-76
2021/12/03 20:14:50;;;;;;;17.42;8.07;;;;;;;;;;5097016;28;20063;-77
2021/12/03 20:19:50;;;;;;;18.98;8.05;;;;;;;;;;5078707;28;20397;-77
2021/12/03 20:22:23;;;;;;;18.15;7.43;;;;;;;;;;5097146;28;20346;-77
2021/12/03 20:27:19;;;;;;;14.90;7.03;;;;;;;;;;5096565;28;20097;-77
2021/12/03 20:29:51;;;;;;;14.65;7.18;;;;;;;;;;5096682;28;20077;-78
2021/12/03 20:32:36;;;;;;;16.10;6.78;;;;;;;;;;5096391;28;20024;-78
2021/12/03 20:37:47;;;;;;;12.40;5.35;;;;;;;;;;5096439;28;20027;-77
2021/12/03 20:40:16;;;;;;;14.27;6.38;;;;;;;;;;5077959;28;20138;-78
2021/12/03 20:48:26;;;;;;;12.45;6.15;;;;;;;;;;5095890;28;20031;-78
2021/12/03 20:51:04;;;;;;;9.55;5.05;;;;;;;;;;5080754;28;20158;-77
2021/12/03 20:53:36;;;;;;;10.57;5.50;;;;;;;;;;5080337;28;20366;-79
2021/12/03 21:09:26;;;;;;;10.50;5.50;;;;;;;;;;5095680;28;20035;-77
2021/12/03 21:11:56;;;;;;;15.80;6.60;;;;;;;;;;5078043;28;20028;-77
2021/12/03 21:14:26;;;;;;;17.63;7.70;;;;;;;;;;5095843;28;20354;-78
2021/12/03 21:19:29;;;;;;;17.73;8.40;;;;;;;;;;5095702;28;20027;-78
2021/12/03 21:22:03;;;;;;;15.85;7.97;;;;;;;;;;5095648;28;20440;-77
2021/12/03 21:24:37;;;;;;;17.75;9.10;;;;;;;;;;5062296;28;20031;-78
2021/12/03 21:27:08;;;;;;;19.30;9.40;;;;;;;;;;5095704;28;20093;-78
2021/12/03 21:30:00;;;;;;;19.52;9.50;;;;;;;;;;5062136;28;20028;-78
2021/12/03 21:43:12;;;;;;;19.25;8.38;;;;;;;;;;5095065;28;20035;-76
2021/12/03 21:45:37;;;;;;;15.45;7.63;;;;;;;;;;5094803;28;20032;-78
2021/12/03 21:48:03;;;;;;;13.23;6.55;;;;;;;;;;5076970;28;20060;-76
2021/12/03 21:50:29;;;;;;;13.30;6.30;;;;;;;;;;5076899;28;20031;-76
2021/12/03 21:52:55;;;;;;;11.90;5.88;;;;;;;;;;5095132;28;20031;-76
2021/12/03 21:55:23;;;;;;;12.02;6.57;;;;;;;;;;5076718;28;20040;-76
2021/12/03 21:57:48;;;;;;;13.40;5.97;;;;;;;;;;5095029;28;20101;-77
2021/12/03 22:00:14;;;;;;;12.15;6.15;;;;;;;;;;5094449;28;20509;-79
2021/12/03 22:02:39;;;;;;;10.32;5.65;;;;;;;;;;5094680;28;20061;-77
2021/12/03 22:05:05;;;;;;;12.35;6.55;;;;;;;;;;5076819;28;20457;-77
2021/12/03 22:07:30;;;;;;;13.45;6.40;;;;;;;;;;5094792;28;20024;-76
2021/12/03 22:09:56;;;;;;;14.27;6.88;;;;;;;;;;5094574;28;20024;-77
2021/12/03 22:12:21;;;;;;;12.48;6.60;;;;;;;;;;5094643;28;20024;-76
2021/12/03 22:14:47;;;;;;;13.93;6.95;;;;;;;;;;5076781;28;20530;-77
2021/12/03 22:17:12;;;;;;;13.38;6.57;;;;;;;;;;5094440;28;20024;-76
2021/12/03 22:19:38;;;;;;;14.02;7.22;;;;;;;;;;5094648;28;20365;-76
2021/12/03 22:22:06;;;;;;;13.40;6.50;;;;;;;;;;5094369;28;20028;-77
2021/12/03 22:24:32;;;;;;;11.07;6.35;;;;;;;;;;5094494;28;20097;-77
2021/12/03 22:26:57;;;;;;;13.20;7.13;;;;;;;;;;5094319;28;20453;-76
2021/12/03 22:29:23;;;;;;;14.73;7.28;;;;;;;;;;5094105;28;20032;-77
2021/12/03 22:31:49;;;;;;;13.65;7.18;;;;;;;;;;5094315;28;20027;-76
2021/12/03 22:34:15;;;;;;;13.27;6.85;;;;;;;;;;5094100;28;20028;-77
2021/12/03 22:36:41;;;;;;;18.95;8.30;;;;;;;;;;5094273;28;20020;-77
2021/12/03 22:39:06;;;;;;;17.80;8.45;;;;;;;;;;5094524;28;20568;-77
2021/12/03 22:41:31;;;;;;;14.75;7.75;;;;;;;;;;5094259;28;20470;-76
2021/12/03 22:43:57;;;;;;;13.93;7.10;;;;;;;;;;5093990;28;20462;-77